sensor_id;sensor_type;location;lat;lon;timestamp;P1;durP1;ratioP1;P2;durP2;ratioP2
3591;SDS011;1810;48.720;9.094;2023-08-17T00:02:12;91.28;;;86.45;;
3591;SDS011;1810;48.720;9.094;2023-08-17T00:04:41;90.07;;;85.32;;
3591;SDS011;1810;48.720;9.094;2023-08-17T00:07:09;103.43;;;98.43;;
3591;SDS011;1810;48.720;9.094;2023-08-17T00:09:38;89.55;;;85.00;;
3591;SDS011;1810;48.720;9.094;2023-08-17T00:12:07;102.53;;;97.63;;
3591;SDS011;1810;48.720;9.094;2023-08-17T00:14:37;90.43;;;85.63;;
3591;SDS011;1810;48.720;9.094;2023-08-17T00:17:06;103.85;;;98.82;;
3591;SDS011;1810;48.720;9.094;2023-08-17T00:19:35;98.82;;;93.97;;
3591;SDS011;1810;48.720;9.094;2023-08-17T00:22:04;99.68;;;94.47;;
3591;SDS011;1810;48.720;9.094;2023-08-17T00:24:33;116.82;;;110.72;;
3591;SDS011;1810;48.720;9.094;2023-08-17T00:27:02;96.03;;;91.38;;
3591;SDS011;1810;48.720;9.094;2023-08-17T00:29:31;105.65;;;100.55;;
3591;SDS011;1810;48.720;9.094;2023-08-17T00:32:03;118.50;;;112.82;;
3591;SDS011;1810;48.720;9.094;2023-08-17T00:34:33;106.82;;;101.35;;
3591;SDS011;1810;48.720;9.094;2023-08-17T00:37:04;99.57;;;94.80;;
3591;SDS011;1810;48.720;9.094;2023-08-17T00:39:33;96.57;;;91.72;;
3591;SDS011;1810;48.720;9.094;2023-08-17T00:42:05;110.65;;;105.25;;
3591;SDS011;1810;48.720;9.094;2023-08-17T00:44:34;110.40;;;104.85;;
3591;SDS011;1810;48.720;9.094;2023-08-17T00:47:05;114.18;;;108.78;;
3591;SDS011;1810;48.720;9.094;2023-08-17T00:49:34;120.32;;;114.35;;
3591;SDS011;1810;48.720;9.094;2023-08-17T00:52:03;126.55;;;120.70;;
3591;SDS011;1810;48.720;9.094;2023-08-17T00:54:32;116.40;;;111.05;;
3591;SDS011;1810;48.720;9.094;2023-08-17T00:57:01;103.30;;;98.57;;
3591;SDS011;1810;48.720;9.094;2023-08-17T00:59:33;119.38;;;113.70;;
3591;SDS011;1810;48.720;9.094;2023-08-17T01:02:02;121.10;;;115.60;;
3591;SDS011;1810;48.720;9.094;2023-08-17T01:04:33;114.18;;;108.43;;
3591;SDS011;1810;48.720;9.094;2023-08-17T01:07:03;109.95;;;104.75;;
3591;SDS011;1810;48.720;9.094;2023-08-17T01:09:32;115.40;;;110.10;;
3591;SDS011;1810;48.720;9.094;2023-08-17T01:12:03;105.72;;;100.13;;
3591;SDS011;1810;48.720;9.094;2023-08-17T01:14:37;102.82;;;97.97;;
3591;SDS011;1810;48.720;9.094;2023-08-17T01:17:15;115.65;;;110.13;;
3591;SDS011;1810;48.720;9.094;2023-08-17T01:19:50;115.70;;;109.88;;
3591;SDS011;1810;48.720;9.094;2023-08-17T01:22:22;122.15;;;116.55;;
3591;SDS011;1810;48.720;9.094;2023-08-17T01:24:55;117.70;;;112.22;;
3591;SDS011;1810;48.720;9.094;2023-08-17T01:27:26;89.65;;;85.18;;
3591;SDS011;1810;48.720;9.094;2023-08-17T01:30:02;101.50;;;96.55;;
3591;SDS011;1810;48.720;9.094;2023-08-17T01:32:33;121.47;;;115.63;;
3591;SDS011;1810;48.720;9.094;2023-08-17T01:35:08;126.67;;;120.77;;
3591;SDS011;1810;48.720;9.094;2023-08-17T01:37:42;119.70;;;113.68;;
3591;SDS011;1810;48.720;9.094;2023-08-17T01:40:13;113.55;;;108.00;;
3591;SDS011;1810;48.720;9.094;2023-08-17T01:42:43;120.10;;;114.53;;
3591;SDS011;1810;48.720;9.094;2023-08-17T01:45:11;115.57;;;110.00;;
3591;SDS011;1810;48.720;9.094;2023-08-17T01:47:43;123.30;;;117.38;;
3591;SDS011;1810;48.720;9.094;2023-08-17T01:50:12;124.43;;;118.40;;
3591;SDS011;1810;48.720;9.094;2023-08-17T01:52:41;146.93;;;140.30;;
3591;SDS011;1810;48.720;9.094;2023-08-17T01:55:10;139.23;;;132.57;;
3591;SDS011;1810;48.720;9.094;2023-08-17T01:57:41;128.40;;;122.43;;
3591;SDS011;1810;48.720;9.094;2023-08-17T02:00:10;136.13;;;130.07;;
3591;SDS011;1810;48.720;9.094;2023-08-17T02:02:40;126.22;;;120.32;;
3591;SDS011;1810;48.720;9.094;2023-08-17T02:05:09;163.88;;;156.25;;
3591;SDS011;1810;48.720;9.094;2023-08-17T02:07:38;138.50;;;132.02;;
3591;SDS011;1810;48.720;9.094;2023-08-17T02:10:07;143.57;;;136.20;;
3591;SDS011;1810;48.720;9.094;2023-08-17T02:12:36;133.52;;;127.22;;
3591;SDS011;1810;48.720;9.094;2023-08-17T02:15:07;120.55;;;114.88;;
3591;SDS011;1810;48.720;9.094;2023-08-17T02:17:37;140.65;;;134.00;;
3591;SDS011;1810;48.720;9.094;2023-08-17T02:20:07;139.25;;;132.50;;
3591;SDS011;1810;48.720;9.094;2023-08-17T02:22:36;117.00;;;111.10;;
3591;SDS011;1810;48.720;9.094;2023-08-17T02:25:05;140.25;;;133.05;;
3591;SDS011;1810;48.720;9.094;2023-08-17T02:27:35;133.75;;;127.03;;
3591;SDS011;1810;48.720;9.094;2023-08-17T02:30:04;133.20;;;126.68;;
3591;SDS011;1810;48.720;9.094;2023-08-17T02:32:38;133.63;;;127.00;;
3591;SDS011;1810;48.720;9.094;2023-08-17T02:35:10;132.18;;;125.22;;
3591;SDS011;1810;48.720;9.094;2023-08-17T02:37:39;145.73;;;138.68;;
3591;SDS011;1810;48.720;9.094;2023-08-17T02:40:08;121.45;;;115.32;;
3591;SDS011;1810;48.720;9.094;2023-08-17T02:42:38;126.35;;;119.95;;
3591;SDS011;1810;48.720;9.094;2023-08-17T02:45:11;146.70;;;139.55;;
3591;SDS011;1810;48.720;9.094;2023-08-17T02:47:42;125.47;;;119.53;;
3591;SDS011;1810;48.720;9.094;2023-08-17T02:50:14;163.85;;;155.98;;
3591;SDS011;1810;48.720;9.094;2023-08-17T02:52:43;146.95;;;138.85;;
3591;SDS011;1810;48.720;9.094;2023-08-17T02:55:14;167.52;;;159.38;;
3591;SDS011;1810;48.720;9.094;2023-08-17T02:57:44;134.77;;;128.27;;
3591;SDS011;1810;48.720;9.094;2023-08-17T03:00:16;145.05;;;137.93;;
3591;SDS011;1810;48.720;9.094;2023-08-17T03:02:48;181.27;;;171.97;;
3591;SDS011;1810;48.720;9.094;2023-08-17T03:05:17;156.18;;;148.65;;
3591;SDS011;1810;48.720;9.094;2023-08-17T03:07:52;128.00;;;121.78;;
3591;SDS011;1810;48.720;9.094;2023-08-17T03:10:22;133.68;;;127.18;;
3591;SDS011;1810;48.720;9.094;2023-08-17T03:12:53;140.63;;;133.52;;
3591;SDS011;1810;48.720;9.094;2023-08-17T03:15:25;142.35;;;135.27;;
3591;SDS011;1810;48.720;9.094;2023-08-17T03:17:54;139.05;;;132.30;;
3591;SDS011;1810;48.720;9.094;2023-08-17T03:20:24;158.85;;;150.10;;
3591;SDS011;1810;48.720;9.094;2023-08-17T03:22:56;127.13;;;120.97;;
3591;SDS011;1810;48.720;9.094;2023-08-17T03:25:25;158.48;;;150.82;;
3591;SDS011;1810;48.720;9.094;2023-08-17T03:27:57;156.73;;;149.60;;
3591;SDS011;1810;48.720;9.094;2023-08-17T03:30:27;129.85;;;123.40;;
3591;SDS011;1810;48.720;9.094;2023-08-17T03:32:56;112.32;;;106.70;;
3591;SDS011;1810;48.720;9.094;2023-08-17T03:35:25;136.88;;;130.35;;
3591;SDS011;1810;48.720;9.094;2023-08-17T03:37:54;137.07;;;130.80;;
3591;SDS011;1810;48.720;9.094;2023-08-17T03:40:25;159.80;;;152.48;;
3591;SDS011;1810;48.720;9.094;2023-08-17T03:42:54;145.43;;;138.35;;
3591;SDS011;1810;48.720;9.094;2023-08-17T03:45:22;117.57;;;111.88;;
3591;SDS011;1810;48.720;9.094;2023-08-17T03:47:54;122.03;;;116.07;;
3591;SDS011;1810;48.720;9.094;2023-08-17T03:50:25;146.88;;;139.77;;
3591;SDS011;1810;48.720;9.094;2023-08-17T03:52:55;121.68;;;115.80;;
3591;SDS011;1810;48.720;9.094;2023-08-17T03:55:24;114.47;;;108.85;;
3591;SDS011;1810;48.720;9.094;2023-08-17T03:57:53;135.77;;;129.35;;
3591;SDS011;1810;48.720;9.094;2023-08-17T04:00:22;128.73;;;122.40;;
3591;SDS011;1810;48.720;9.094;2023-08-17T04:02:51;121.00;;;115.28;;
3591;SDS011;1810;48.720;9.094;2023-08-17T04:05:21;142.93;;;136.60;;
3591;SDS011;1810;48.720;9.094;2023-08-17T04:07:50;156.23;;;149.13;;
3591;SDS011;1810;48.720;9.094;2023-08-17T04:10:21;141.38;;;134.52;;
3591;SDS011;1810;48.720;9.094;2023-08-17T04:12:50;126.53;;;120.22;;
3591;SDS011;1810;48.720;9.094;2023-08-17T04:15:19;136.35;;;129.35;;
3591;SDS011;1810;48.720;9.094;2023-08-17T04:17:48;121.85;;;116.18;;
3591;SDS011;1810;48.720;9.094;2023-08-17T04:20:17;121.28;;;115.15;;
3591;SDS011;1810;48.720;9.094;2023-08-17T04:22:52;143.38;;;136.75;;
3591;SDS011;1810;48.720;9.094;2023-08-17T04:25:43;109.32;;;103.85;;
3591;SDS011;1810;48.720;9.094;2023-08-17T04:28:19;137.73;;;131.20;;
3591;SDS011;1810;48.720;9.094;2023-08-17T04:30:53;135.60;;;129.23;;
3591;SDS011;1810;48.720;9.094;2023-08-17T04:33:27;171.57;;;163.67;;
3591;SDS011;1810;48.720;9.094;2023-08-17T04:35:58;128.75;;;122.57;;
3591;SDS011;1810;48.720;9.094;2023-08-17T04:38:29;130.75;;;124.40;;
3591;SDS011;1810;48.720;9.094;2023-08-17T04:40:58;132.15;;;125.82;;
3591;SDS011;1810;48.720;9.094;2023-08-17T04:43:27;142.00;;;135.07;;
3591;SDS011;1810;48.720;9.094;2023-08-17T04:45:56;170.13;;;162.63;;
3591;SDS011;1810;48.720;9.094;2023-08-17T04:48:24;189.05;;;180.38;;
3591;SDS011;1810;48.720;9.094;2023-08-17T04:50:54;118.38;;;112.72;;
3591;SDS011;1810;48.720;9.094;2023-08-17T04:53:23;156.43;;;149.40;;
3591;SDS011;1810;48.720;9.094;2023-08-17T04:55:53;139.85;;;133.13;;
3591;SDS011;1810;48.720;9.094;2023-08-17T04:58:22;155.43;;;148.25;;
3591;SDS011;1810;48.720;9.094;2023-08-17T05:00:51;192.98;;;184.25;;
3591;SDS011;1810;48.720;9.094;2023-08-17T05:03:23;132.02;;;125.95;;
3591;SDS011;1810;48.720;9.094;2023-08-17T05:05:59;175.98;;;168.00;;
3591;SDS011;1810;48.720;9.094;2023-08-17T05:08:28;168.65;;;160.98;;
3591;SDS011;1810;48.720;9.094;2023-08-17T05:10:58;138.77;;;132.13;;
3591;SDS011;1810;48.720;9.094;2023-08-17T05:13:27;157.68;;;150.27;;
3591;SDS011;1810;48.720;9.094;2023-08-17T05:15:55;134.35;;;127.82;;
3591;SDS011;1810;48.720;9.094;2023-08-17T05:18:26;157.38;;;149.75;;
3591;SDS011;1810;48.720;9.094;2023-08-17T05:20:55;157.45;;;149.98;;
3591;SDS011;1810;48.720;9.094;2023-08-17T05:23:33;174.85;;;166.25;;
3591;SDS011;1810;48.720;9.094;2023-08-17T05:26:03;175.88;;;167.38;;
3591;SDS011;1810;48.720;9.094;2023-08-17T05:28:32;193.20;;;184.15;;
3591;SDS011;1810;48.720;9.094;2023-08-17T05:31:04;195.38;;;186.27;;
3591;SDS011;1810;48.720;9.094;2023-08-17T05:33:33;205.98;;;196.38;;
3591;SDS011;1810;48.720;9.094;2023-08-17T05:36:05;172.18;;;163.93;;
3591;SDS011;1810;48.720;9.094;2023-08-17T05:39:10;222.20;;;211.40;;
3591;SDS011;1810;48.720;9.094;2023-08-17T05:41:47;206.68;;;197.13;;
3591;SDS011;1810;48.720;9.094;2023-08-17T05:44:16;176.80;;;168.32;;
3591;SDS011;1810;48.720;9.094;2023-08-17T05:46:54;215.70;;;205.40;;
3591;SDS011;1810;48.720;9.094;2023-08-17T05:49:51;186.27;;;177.15;;
3591;SDS011;1810;48.720;9.094;2023-08-17T05:52:19;133.55;;;126.80;;
3591;SDS011;1810;48.720;9.094;2023-08-17T05:54:48;164.27;;;156.30;;
3591;SDS011;1810;48.720;9.094;2023-08-17T05:57:18;157.32;;;149.73;;
3591;SDS011;1810;48.720;9.094;2023-08-17T05:59:46;184.50;;;175.82;;
3591;SDS011;1810;48.720;9.094;2023-08-17T06:02:14;187.18;;;178.68;;
3591;SDS011;1810;48.720;9.094;2023-08-17T06:04:43;226.68;;;215.98;;
3591;SDS011;1810;48.720;9.094;2023-08-17T06:07:11;272.15;;;259.48;;
3591;SDS011;1810;48.720;9.094;2023-08-17T06:09:40;221.98;;;211.52;;
3591;SDS011;1810;48.720;9.094;2023-08-17T06:12:09;257.60;;;245.73;;
3591;SDS011;1810;48.720;9.094;2023-08-17T06:14:38;310.92;;;296.85;;
3591;SDS011;1810;48.720;9.094;2023-08-17T06:17:08;315.50;;;300.73;;
3591;SDS011;1810;48.720;9.094;2023-08-17T06:19:37;332.67;;;317.55;;
3591;SDS011;1810;48.720;9.094;2023-08-17T06:22:06;363.60;;;346.73;;
3591;SDS011;1810;48.720;9.094;2023-08-17T06:24:34;348.13;;;332.10;;
3591;SDS011;1810;48.720;9.094;2023-08-17T06:27:03;332.33;;;317.35;;
3591;SDS011;1810;48.720;9.094;2023-08-17T06:29:32;365.15;;;347.73;;
3591;SDS011;1810;48.720;9.094;2023-08-17T06:32:01;343.35;;;327.77;;
3591;SDS011;1810;48.720;9.094;2023-08-17T06:34:30;353.08;;;336.63;;
3591;SDS011;1810;48.720;9.094;2023-08-17T06:37:03;348.80;;;333.20;;
3591;SDS011;1810;48.720;9.094;2023-08-17T06:39:31;324.42;;;309.88;;
3591;SDS011;1810;48.720;9.094;2023-08-17T06:42:00;385.90;;;367.77;;
3591;SDS011;1810;48.720;9.094;2023-08-17T06:44:29;337.00;;;321.17;;
3591;SDS011;1810;48.720;9.094;2023-08-17T06:46:58;338.20;;;322.67;;
3591;SDS011;1810;48.720;9.094;2023-08-17T06:49:27;312.58;;;298.50;;
3591;SDS011;1810;48.720;9.094;2023-08-17T06:51:57;319.77;;;305.08;;
3591;SDS011;1810;48.720;9.094;2023-08-17T06:54:26;307.98;;;294.10;;
3591;SDS011;1810;48.720;9.094;2023-08-17T06:56:54;317.90;;;303.52;;
3591;SDS011;1810;48.720;9.094;2023-08-17T06:59:23;327.95;;;312.83;;
3591;SDS011;1810;48.720;9.094;2023-08-17T07:01:51;387.88;;;369.55;;
3591;SDS011;1810;48.720;9.094;2023-08-17T07:04:20;357.08;;;340.52;;
3591;SDS011;1810;48.720;9.094;2023-08-17T07:06:50;371.27;;;353.52;;
3591;SDS011;1810;48.720;9.094;2023-08-17T07:09:19;357.27;;;340.50;;
3591;SDS011;1810;48.720;9.094;2023-08-17T07:11:47;415.80;;;395.58;;
3591;SDS011;1810;48.720;9.094;2023-08-17T07:14:18;432.70;;;411.80;;
3591;SDS011;1810;48.720;9.094;2023-08-17T07:16:48;379.42;;;361.55;;
3591;SDS011;1810;48.720;9.094;2023-08-17T07:19:17;487.10;;;462.70;;
3591;SDS011;1810;48.720;9.094;2023-08-17T07:21:52;406.58;;;387.20;;
3591;SDS011;1810;48.720;9.094;2023-08-17T07:24:20;378.67;;;360.75;;
3591;SDS011;1810;48.720;9.094;2023-08-17T07:26:49;308.92;;;294.95;;
3591;SDS011;1810;48.720;9.094;2023-08-17T07:29:18;341.85;;;325.67;;
3591;SDS011;1810;48.720;9.094;2023-08-17T07:31:46;518.03;;;491.52;;
3591;SDS011;1810;48.720;9.094;2023-08-17T07:34:15;394.65;;;375.75;;
3591;SDS011;1810;48.720;9.094;2023-08-17T07:36:44;375.77;;;357.92;;
3591;SDS011;1810;48.720;9.094;2023-08-17T07:39:14;443.50;;;420.98;;
3591;SDS011;1810;48.720;9.094;2023-08-17T07:41:44;474.50;;;450.60;;
3591;SDS011;1810;48.720;9.094;2023-08-17T07:44:13;553.95;;;524.55;;
3591;SDS011;1810;48.720;9.094;2023-08-17T07:46:42;537.97;;;510.38;;
3591;SDS011;1810;48.720;9.094;2023-08-17T07:49:10;536.80;;;509.20;;
3591;SDS011;1810;48.720;9.094;2023-08-17T07:51:59;582.22;;;550.22;;
3591;SDS011;1810;48.720;9.094;2023-08-17T07:54:29;531.10;;;503.88;;
3591;SDS011;1810;48.720;9.094;2023-08-17T07:56:58;534.60;;;507.30;;
3591;SDS011;1810;48.720;9.094;2023-08-17T07:59:27;538.63;;;510.23;;
3591;SDS011;1810;48.720;9.094;2023-08-17T08:01:55;461.80;;;438.77;;
3591;SDS011;1810;48.720;9.094;2023-08-17T08:04:24;441.73;;;420.00;;
3591;SDS011;1810;48.720;9.094;2023-08-17T08:06:53;440.85;;;418.77;;
3591;SDS011;1810;48.720;9.094;2023-08-17T08:09:22;332.27;;;317.27;;
3591;SDS011;1810;48.720;9.094;2023-08-17T08:11:52;306.80;;;293.17;;
3591;SDS011;1810;48.720;9.094;2023-08-17T08:14:21;317.25;;;302.98;;
3591;SDS011;1810;48.720;9.094;2023-08-17T08:16:49;313.23;;;299.23;;
3591;SDS011;1810;48.720;9.094;2023-08-17T08:19:18;333.05;;;318.02;;
3591;SDS011;1810;48.720;9.094;2023-08-17T08:21:46;321.23;;;306.48;;
3591;SDS011;1810;48.720;9.094;2023-08-17T08:24:15;317.98;;;303.73;;
3591;SDS011;1810;48.720;9.094;2023-08-17T08:27:04;425.42;;;401.00;;
3591;SDS011;1810;48.720;9.094;2023-08-17T08:29:33;308.38;;;294.70;;
3591;SDS011;1810;48.720;9.094;2023-08-17T08:32:02;303.85;;;290.55;;
3591;SDS011;1810;48.720;9.094;2023-08-17T08:34:30;301.50;;;288.20;;
3591;SDS011;1810;48.720;9.094;2023-08-17T08:36:59;296.73;;;284.00;;
3591;SDS011;1810;48.720;9.094;2023-08-17T08:39:28;314.35;;;300.33;;
3591;SDS011;1810;48.720;9.094;2023-08-17T08:41:56;285.65;;;273.48;;
3591;SDS011;1810;48.720;9.094;2023-08-17T08:44:26;382.25;;;364.40;;
3591;SDS011;1810;48.720;9.094;2023-08-17T08:46:55;325.23;;;311.00;;
3591;SDS011;1810;48.720;9.094;2023-08-17T08:49:25;309.17;;;295.70;;
3591;SDS011;1810;48.720;9.094;2023-08-17T08:51:58;303.33;;;289.63;;
3591;SDS011;1810;48.720;9.094;2023-08-17T08:54:27;346.95;;;331.30;;
3591;SDS011;1810;48.720;9.094;2023-08-17T08:56:58;392.70;;;374.20;;
3591;SDS011;1810;48.720;9.094;2023-08-17T08:59:30;359.98;;;343.33;;
3591;SDS011;1810;48.720;9.094;2023-08-17T09:02:01;357.30;;;340.65;;
3591;SDS011;1810;48.720;9.094;2023-08-17T09:04:31;365.65;;;348.83;;
3591;SDS011;1810;48.720;9.094;2023-08-17T09:07:00;297.73;;;284.35;;
3591;SDS011;1810;48.720;9.094;2023-08-17T09:09:29;311.83;;;298.10;;
3591;SDS011;1810;48.720;9.094;2023-08-17T09:11:58;359.08;;;342.67;;
3591;SDS011;1810;48.720;9.094;2023-08-17T09:14:27;316.33;;;301.88;;
3591;SDS011;1810;48.720;9.094;2023-08-17T09:16:57;370.38;;;353.17;;
3591;SDS011;1810;48.720;9.094;2023-08-17T09:19:26;394.48;;;376.15;;
3591;SDS011;1810;48.720;9.094;2023-08-17T09:21:55;345.83;;;330.30;;
3591;SDS011;1810;48.720;9.094;2023-08-17T09:24:23;353.38;;;337.30;;
3591;SDS011;1810;48.720;9.094;2023-08-17T09:26:52;351.20;;;335.35;;
3591;SDS011;1810;48.720;9.094;2023-08-17T09:29:24;467.38;;;444.60;;
3591;SDS011;1810;48.720;9.094;2023-08-17T09:31:55;539.58;;;511.83;;
3591;SDS011;1810;48.720;9.094;2023-08-17T09:34:23;545.08;;;516.70;;
3591;SDS011;1810;48.720;9.094;2023-08-17T09:36:51;537.28;;;509.80;;
3591;SDS011;1810;48.720;9.094;2023-08-17T09:39:20;530.75;;;503.58;;
3591;SDS011;1810;48.720;9.094;2023-08-17T09:41:48;629.60;;;594.00;;
3591;SDS011;1810;48.720;9.094;2023-08-17T09:44:17;631.50;;;594.92;;
3591;SDS011;1810;48.720;9.094;2023-08-17T09:46:45;580.42;;;549.50;;
3591;SDS011;1810;48.720;9.094;2023-08-17T09:49:16;512.42;;;486.45;;
3591;SDS011;1810;48.720;9.094;2023-08-17T09:51:48;511.38;;;485.65;;
3591;SDS011;1810;48.720;9.094;2023-08-17T09:54:20;508.40;;;482.98;;
3591;SDS011;1810;48.720;9.094;2023-08-17T09:56:50;500.52;;;474.95;;
3591;SDS011;1810;48.720;9.094;2023-08-17T09:59:18;606.45;;;573.22;;
3591;SDS011;1810;48.720;9.094;2023-08-17T10:01:49;618.63;;;584.03;;
3591;SDS011;1810;48.720;9.094;2023-08-17T10:04:22;576.20;;;544.67;;
3591;SDS011;1810;48.720;9.094;2023-08-17T10:06:51;643.47;;;606.72;;
3591;SDS011;1810;48.720;9.094;2023-08-17T10:09:26;618.38;;;583.70;;
3591;SDS011;1810;48.720;9.094;2023-08-17T10:11:58;597.13;;;564.58;;
3591;SDS011;1810;48.720;9.094;2023-08-17T10:14:33;646.20;;;608.65;;
3591;SDS011;1810;48.720;9.094;2023-08-17T10:17:06;644.60;;;606.75;;
3591;SDS011;1810;48.720;9.094;2023-08-17T10:19:43;558.42;;;529.22;;
3591;SDS011;1810;48.720;9.094;2023-08-17T10:22:18;517.60;;;491.55;;
3591;SDS011;1810;48.720;9.094;2023-08-17T10:24:51;566.70;;;536.50;;
3591;SDS011;1810;48.720;9.094;2023-08-17T10:27:20;587.75;;;555.47;;
3591;SDS011;1810;48.720;9.094;2023-08-17T10:29:48;629.20;;;593.63;;
3591;SDS011;1810;48.720;9.094;2023-08-17T10:32:20;526.38;;;499.52;;
3591;SDS011;1810;48.720;9.094;2023-08-17T10:34:52;511.23;;;485.30;;
3591;SDS011;1810;48.720;9.094;2023-08-17T10:37:21;498.13;;;473.02;;
3591;SDS011;1810;48.720;9.094;2023-08-17T10:39:51;501.13;;;475.95;;
3591;SDS011;1810;48.720;9.094;2023-08-17T10:42:32;470.88;;;447.77;;
3591;SDS011;1810;48.720;9.094;2023-08-17T10:45:24;545.42;;;517.05;;
3591;SDS011;1810;48.720;9.094;2023-08-17T10:48:24;559.17;;;529.33;;
3591;SDS011;1810;48.720;9.094;2023-08-17T10:51:00;583.13;;;551.97;;
3591;SDS011;1810;48.720;9.094;2023-08-17T10:53:36;541.47;;;513.28;;
3591;SDS011;1810;48.720;9.094;2023-08-17T10:56:12;568.03;;;537.65;;
3591;SDS011;1810;48.720;9.094;2023-08-17T10:58:44;494.25;;;469.55;;
3591;SDS011;1810;48.720;9.094;2023-08-17T11:01:21;503.00;;;477.70;;
3591;SDS011;1810;48.720;9.094;2023-08-17T11:04:12;504.60;;;479.10;;
3591;SDS011;1810;48.720;9.094;2023-08-17T11:06:45;488.63;;;464.60;;
3591;SDS011;1810;48.720;9.094;2023-08-17T11:09:14;492.40;;;468.05;;
3591;SDS011;1810;48.720;9.094;2023-08-17T11:11:44;534.15;;;506.60;;
3591;SDS011;1810;48.720;9.094;2023-08-17T11:14:20;577.22;;;546.58;;
3591;SDS011;1810;48.720;9.094;2023-08-17T11:16:48;606.42;;;572.92;;
3591;SDS011;1810;48.720;9.094;2023-08-17T11:19:17;618.55;;;583.72;;
3591;SDS011;1810;48.720;9.094;2023-08-17T11:21:47;643.72;;;606.67;;
3591;SDS011;1810;48.720;9.094;2023-08-17T11:24:16;697.60;;;655.65;;
3591;SDS011;1810;48.720;9.094;2023-08-17T11:26:44;683.58;;;642.90;;
3591;SDS011;1810;48.720;9.094;2023-08-17T11:29:14;677.58;;;636.97;;
3591;SDS011;1810;48.720;9.094;2023-08-17T11:31:46;648.70;;;611.58;;
3591;SDS011;1810;48.720;9.094;2023-08-17T11:34:18;613.03;;;579.15;;
3591;SDS011;1810;48.720;9.094;2023-08-17T11:36:48;626.80;;;591.40;;
3591;SDS011;1810;48.720;9.094;2023-08-17T11:39:16;657.05;;;618.92;;
3591;SDS011;1810;48.720;9.094;2023-08-17T11:41:47;658.90;;;620.95;;
3591;SDS011;1810;48.720;9.094;2023-08-17T11:44:18;662.05;;;623.15;;
3591;SDS011;1810;48.720;9.094;2023-08-17T11:46:50;639.13;;;602.38;;
3591;SDS011;1810;48.720;9.094;2023-08-17T11:49:18;649.65;;;612.20;;
3591;SDS011;1810;48.720;9.094;2023-08-17T11:51:50;661.42;;;623.20;;
3591;SDS011;1810;48.720;9.094;2023-08-17T11:54:19;682.03;;;641.28;;
3591;SDS011;1810;48.720;9.094;2023-08-17T11:56:48;639.60;;;603.05;;
3591;SDS011;1810;48.720;9.094;2023-08-17T11:59:16;668.38;;;629.03;;
3591;SDS011;1810;48.720;9.094;2023-08-17T12:01:45;670.35;;;630.30;;
3591;SDS011;1810;48.720;9.094;2023-08-17T12:04:14;677.53;;;636.17;;
3591;SDS011;1810;48.720;9.094;2023-08-17T12:06:43;593.05;;;560.67;;
3591;SDS011;1810;48.720;9.094;2023-08-17T12:09:13;656.70;;;618.45;;
3591;SDS011;1810;48.720;9.094;2023-08-17T12:11:44;623.95;;;589.40;;
3591;SDS011;1810;48.720;9.094;2023-08-17T12:14:13;611.78;;;577.80;;
3591;SDS011;1810;48.720;9.094;2023-08-17T12:16:45;607.35;;;573.88;;
3591;SDS011;1810;48.720;9.094;2023-08-17T12:19:15;637.53;;;601.22;;
3591;SDS011;1810;48.720;9.094;2023-08-17T12:21:43;617.35;;;582.92;;
3591;SDS011;1810;48.720;9.094;2023-08-17T12:24:14;596.65;;;564.17;;
3591;SDS011;1810;48.720;9.094;2023-08-17T12:26:43;582.33;;;550.80;;
3591;SDS011;1810;48.720;9.094;2023-08-17T12:29:12;574.30;;;543.50;;
3591;SDS011;1810;48.720;9.094;2023-08-17T12:31:41;575.25;;;544.72;;
3591;SDS011;1810;48.720;9.094;2023-08-17T12:34:09;506.58;;;480.73;;
3591;SDS011;1810;48.720;9.094;2023-08-17T12:36:38;507.80;;;481.60;;
3591;SDS011;1810;48.720;9.094;2023-08-17T12:39:06;496.02;;;471.02;;
3591;SDS011;1810;48.720;9.094;2023-08-17T12:41:36;459.52;;;436.92;;
3591;SDS011;1810;48.720;9.094;2023-08-17T12:44:05;440.95;;;419.63;;
3591;SDS011;1810;48.720;9.094;2023-08-17T12:46:35;415.92;;;396.48;;
3591;SDS011;1810;48.720;9.094;2023-08-17T12:49:04;433.17;;;412.75;;
3591;SDS011;1810;48.720;9.094;2023-08-17T12:51:33;451.27;;;429.60;;
3591;SDS011;1810;48.720;9.094;2023-08-17T12:54:02;402.13;;;383.48;;
3591;SDS011;1810;48.720;9.094;2023-08-17T12:56:30;435.08;;;414.27;;
3591;SDS011;1810;48.720;9.094;2023-08-17T12:59:00;435.05;;;414.65;;
3591;SDS011;1810;48.720;9.094;2023-08-17T13:01:29;454.30;;;432.40;;
3591;SDS011;1810;48.720;9.094;2023-08-17T13:03:57;460.85;;;438.75;;
3591;SDS011;1810;48.720;9.094;2023-08-17T13:06:26;500.00;;;474.75;;
3591;SDS011;1810;48.720;9.094;2023-08-17T13:09:13;263.40;;;251.63;;
3591;SDS011;1810;48.720;9.094;2023-08-17T13:11:42;251.80;;;240.30;;
3591;SDS011;1810;48.720;9.094;2023-08-17T13:14:12;332.83;;;311.92;;
3591;SDS011;1810;48.720;9.094;2023-08-17T13:16:41;109.40;;;104.45;;
3591;SDS011;1810;48.720;9.094;2023-08-17T13:19:09;86.18;;;81.55;;
3591;SDS011;1810;48.720;9.094;2023-08-17T13:21:38;54.42;;;51.53;;
3591;SDS011;1810;48.720;9.094;2023-08-17T13:24:06;47.58;;;45.03;;
3591;SDS011;1810;48.720;9.094;2023-08-17T13:26:36;44.35;;;41.88;;
3591;SDS011;1810;48.720;9.094;2023-08-17T13:29:04;37.38;;;34.92;;
3591;SDS011;1810;48.720;9.094;2023-08-17T13:31:34;55.28;;;52.28;;
3591;SDS011;1810;48.720;9.094;2023-08-17T13:34:02;61.30;;;58.17;;
3591;SDS011;1810;48.720;9.094;2023-08-17T13:36:32;46.08;;;43.58;;
3591;SDS011;1810;48.720;9.094;2023-08-17T13:39:00;44.17;;;41.60;;
3591;SDS011;1810;48.720;9.094;2023-08-17T13:41:28;59.20;;;55.90;;
3591;SDS011;1810;48.720;9.094;2023-08-17T13:43:57;55.28;;;52.13;;
3591;SDS011;1810;48.720;9.094;2023-08-17T13:46:27;61.03;;;57.75;;
3591;SDS011;1810;48.720;9.094;2023-08-17T13:48:57;54.60;;;51.63;;
3591;SDS011;1810;48.720;9.094;2023-08-17T13:51:25;59.03;;;55.85;;
3591;SDS011;1810;48.720;9.094;2023-08-17T13:53:54;64.28;;;60.70;;
3591;SDS011;1810;48.720;9.094;2023-08-17T13:56:22;63.13;;;59.90;;
3591;SDS011;1810;48.720;9.094;2023-08-17T13:58:53;64.55;;;60.65;;
3591;SDS011;1810;48.720;9.094;2023-08-17T14:01:22;82.28;;;78.15;;
3591;SDS011;1810;48.720;9.094;2023-08-17T14:03:51;67.30;;;63.92;;
3591;SDS011;1810;48.720;9.094;2023-08-17T14:06:20;91.53;;;87.10;;
3591;SDS011;1810;48.720;9.094;2023-08-17T14:08:49;72.13;;;68.15;;
3591;SDS011;1810;48.720;9.094;2023-08-17T14:11:18;88.78;;;84.35;;
3591;SDS011;1810;48.720;9.094;2023-08-17T14:13:46;92.63;;;87.63;;
3591;SDS011;1810;48.720;9.094;2023-08-17T14:16:15;95.38;;;90.28;;
3591;SDS011;1810;48.720;9.094;2023-08-17T14:18:44;143.25;;;135.75;;
3591;SDS011;1810;48.720;9.094;2023-08-17T14:21:12;84.93;;;80.57;;
3591;SDS011;1810;48.720;9.094;2023-08-17T14:23:42;92.05;;;87.63;;
3591;SDS011;1810;48.720;9.094;2023-08-17T14:26:10;126.45;;;118.05;;
3591;SDS011;1810;48.720;9.094;2023-08-17T14:28:39;87.35;;;83.05;;
3591;SDS011;1810;48.720;9.094;2023-08-17T14:31:10;112.18;;;106.55;;
3591;SDS011;1810;48.720;9.094;2023-08-17T14:33:42;135.82;;;128.95;;
3591;SDS011;1810;48.720;9.094;2023-08-17T14:36:12;101.53;;;96.65;;
3591;SDS011;1810;48.720;9.094;2023-08-17T14:38:46;115.45;;;110.15;;
3591;SDS011;1810;48.720;9.094;2023-08-17T14:41:15;126.63;;;120.95;;
3591;SDS011;1810;48.720;9.094;2023-08-17T14:43:43;173.23;;;162.23;;